createdAt,value
2023-02-24T00:02:25.936Z,9.27
2023-02-24T00:05:31.207Z,9.70
2023-02-24T00:08:36.350Z,9.77
2023-02-24T00:11:45.240Z,9.50
2023-02-24T00:14:50.983Z,9.55
2023-02-24T00:17:56.060Z,10.18
2023-02-24T00:21:08.626Z,9.60
2023-02-24T00:24:14.162Z,8.98
2023-02-24T00:27:22.152Z,9.13
2023-02-24T00:30:29.315Z,8.07
2023-02-24T00:33:34.706Z,8.33
2023-02-24T00:36:40.020Z,9.05
2023-02-24T00:39:45.481Z,7.82
2023-02-24T00:42:54.540Z,9.20
2023-02-24T00:45:59.600Z,8.05
2023-02-24T00:49:06.001Z,9.05
2023-02-24T00:52:13.906Z,7.55
2023-02-24T00:55:19.716Z,8.60
2023-02-24T00:58:30.219Z,8.68
2023-02-24T01:01:36.501Z,7.65
2023-02-24T01:04:42.760Z,8.30
2023-02-24T01:07:48.126Z,8.05
2023-02-24T01:11:12.129Z,7.80
2023-02-24T01:14:20.970Z,7.47
2023-02-24T01:17:26.401Z,7.82
2023-02-24T01:20:33.579Z,8.48
2023-02-24T01:23:39.061Z,7.97
2023-02-24T01:26:44.443Z,7.90
2023-02-24T01:29:52.438Z,7.30
2023-02-24T01:32:58.187Z,8.65
2023-02-24T01:36:13.271Z,6.90
2023-02-24T01:39:18.823Z,7.90
2023-02-24T01:42:25.785Z,7.50
2023-02-24T01:45:37.029Z,6.93
2023-02-24T01:48:43.202Z,6.93
2023-02-24T01:51:50.426Z,9.05
2023-02-24T01:54:58.630Z,8.20
2023-02-24T01:58:04.991Z,8.00
2023-02-24T02:01:14.653Z,7.97
2023-02-24T02:04:21.847Z,8.32
2023-02-24T02:07:29.216Z,7.80
2023-02-24T02:10:35.304Z,8.47
2023-02-24T02:13:43.939Z,8.70
2023-02-24T02:16:57.315Z,7.00
2023-02-24T02:20:16.226Z,6.90
2023-02-24T02:23:51.614Z,7.97
2023-02-24T02:27:07.869Z,7.13
2023-02-24T02:30:21.657Z,6.63
2023-02-24T02:33:43.286Z,7.13
2023-02-24T02:36:58.920Z,7.43
2023-02-24T02:40:09.143Z,6.40
2023-02-24T02:43:18.700Z,6.75
2023-02-24T02:46:35.109Z,6.53
2023-02-24T02:49:42.380Z,6.85
2023-02-24T02:52:54.359Z,6.35
2023-02-24T02:56:03.725Z,6.53
2023-02-24T02:59:13.118Z,6.97
2023-02-24T03:02:21.686Z,6.85
2023-02-24T03:05:31.848Z,7.22
2023-02-24T03:08:43.626Z,7.00
2023-02-24T03:11:53.395Z,6.93
2023-02-24T03:15:02.280Z,7.00
2023-02-24T03:18:11.500Z,8.00
2023-02-24T03:21:20.872Z,7.20
2023-02-24T03:24:29.486Z,7.50
2023-02-24T03:27:41.447Z,6.70
2023-02-24T03:30:52.609Z,7.30
2023-02-24T03:37:06.419Z,7.25
2023-02-24T03:40:16.535Z,7.60
2023-02-24T03:43:26.222Z,7.28
2023-02-24T03:46:34.223Z,6.75
2023-02-24T03:49:43.844Z,7.18
2023-02-24T03:52:57.329Z,7.78
2023-02-24T03:56:11.710Z,6.63
2023-02-24T03:59:28.799Z,6.75
2023-02-24T04:02:37.045Z,7.65
2023-02-24T04:05:48.849Z,6.50
2023-02-24T04:08:56.460Z,7.63
2023-02-24T04:12:09.686Z,8.00
2023-02-24T04:15:21.399Z,6.50
2023-02-24T04:18:29.686Z,7.00
2023-02-24T04:21:37.216Z,6.88
2023-02-24T04:24:44.563Z,7.32
2023-02-24T04:27:52.641Z,6.50
2023-02-24T04:31:01.089Z,7.38
2023-02-24T04:34:09.634Z,6.85
2023-02-24T04:37:17.991Z,7.50
2023-02-24T04:40:24.988Z,7.68
2023-02-24T04:43:33.133Z,6.75
2023-02-24T04:49:44.848Z,7.50
2023-02-24T04:52:50.706Z,7.07
2023-02-24T04:55:56.603Z,6.95
2023-02-24T04:59:04.575Z,7.35
2023-02-24T05:02:10.142Z,7.07
2023-02-24T05:05:15.429Z,7.10
2023-02-24T05:08:21.548Z,6.80
2023-02-24T05:11:27.651Z,6.95
2023-02-24T05:14:35.704Z,7.15
2023-02-24T05:17:41.184Z,7.15
2023-02-24T05:21:01.725Z,7.13
2023-02-24T05:24:07.761Z,7.80
2023-02-24T05:27:13.078Z,7.38
2023-02-24T05:30:21.443Z,7.43
2023-02-24T05:33:29.402Z,6.68
2023-02-24T05:36:35.758Z,8.43
2023-02-24T05:39:41.285Z,7.88
2023-02-24T05:42:46.653Z,7.22
2023-02-24T05:45:54.346Z,7.55
2023-02-24T05:49:00.234Z,7.32
2023-02-24T05:52:09.150Z,8.02
2023-02-24T05:55:14.884Z,8.20
2023-02-24T05:58:20.100Z,8.23
2023-02-24T06:01:30.690Z,8.00
2023-02-24T06:04:51.606Z,7.60
2023-02-24T06:08:05.418Z,6.80
2023-02-24T06:11:11.935Z,8.70
2023-02-24T06:14:17.402Z,7.25
2023-02-24T06:17:25.874Z,8.05
2023-02-24T06:20:33.473Z,9.15
2023-02-24T06:23:39.473Z,8.02
2023-02-24T06:26:45.175Z,9.27
2023-02-24T06:29:52.115Z,8.13
2023-02-24T06:32:59.783Z,8.55
2023-02-24T06:36:07.042Z,8.88
2023-02-24T06:39:14.820Z,10.23
2023-02-24T06:42:20.206Z,8.82
2023-02-24T06:45:26.559Z,8.32
2023-02-24T06:48:34.984Z,9.23
2023-02-24T06:51:39.996Z,9.65
2023-02-24T06:54:47.798Z,9.63
2023-02-24T07:01:03.130Z,9.88
2023-02-24T07:04:27.886Z,8.75
2023-02-24T07:07:33.786Z,9.98
2023-02-24T07:10:39.325Z,10.90
2023-02-24T07:13:44.898Z,10.57
2023-02-24T07:16:55.027Z,9.13
2023-02-24T07:20:11.773Z,10.02
2023-02-24T07:23:17.314Z,10.32
2023-02-24T07:26:24.419Z,10.75
2023-02-24T07:29:29.981Z,10.57
2023-02-24T07:32:35.692Z,9.27
2023-02-24T07:35:43.727Z,9.80
2023-02-24T07:38:49.024Z,10.57
2023-02-24T07:41:55.839Z,10.10
2023-02-24T07:45:00.960Z,10.25
2023-02-24T07:48:08.376Z,9.25
2023-02-24T07:51:17.489Z,10.57
2023-02-24T07:54:23.526Z,10.88
2023-02-24T07:57:29.140Z,11.10
2023-02-24T08:00:50.814Z,9.30
2023-02-24T08:03:56.342Z,9.82
2023-02-24T08:07:05.173Z,10.10
2023-02-24T08:10:24.665Z,10.32
2023-02-24T08:13:37.686Z,11.10
2023-02-24T08:16:43.175Z,11.68
2023-02-24T08:19:49.417Z,11.07
2023-02-24T08:22:57.449Z,10.45
2023-02-24T08:26:06.240Z,11.52
2023-02-24T08:29:11.544Z,10.90
2023-02-24T08:32:19.667Z,10.95
2023-02-24T08:35:32.098Z,11.52
2023-02-24T08:38:45.071Z,10.80
2023-02-24T08:41:51.806Z,10.65
2023-02-24T08:44:58.679Z,11.98
2023-02-24T08:48:18.466Z,10.80
2023-02-24T08:51:29.141Z,10.43
2023-02-24T08:54:48.249Z,11.00
2023-02-24T08:57:56.501Z,12.18
2023-02-24T09:01:04.080Z,10.40
2023-02-24T09:04:11.854Z,12.20
2023-02-24T09:07:18.386Z,11.45
2023-02-24T09:10:28.986Z,10.75
2023-02-24T09:13:36.065Z,10.30
2023-02-24T09:17:01.127Z,11.10
2023-02-24T09:20:39.263Z,11.43
2023-02-24T09:23:46.280Z,10.40
2023-02-24T09:26:58.809Z,11.63
2023-02-24T09:30:08.373Z,11.88
2023-02-24T09:33:21.540Z,11.10
2023-02-24T09:36:30.822Z,11.30
2023-02-24T09:39:57.809Z,10.73
2023-02-24T09:43:11.419Z,11.90
2023-02-24T09:46:17.747Z,10.68
2023-02-24T09:49:24.145Z,10.82
2023-02-24T09:52:39.987Z,11.60
2023-02-24T09:56:00.517Z,11.23
2023-02-24T09:59:14.646Z,11.05
2023-02-24T10:02:31.462Z,10.65
2023-02-24T10:05:39.459Z,10.90
2023-02-24T10:08:47.060Z,11.60
2023-02-24T10:12:04.670Z,11.17
2023-02-24T10:15:32.504Z,10.80
2023-02-24T10:18:42.920Z,10.68
2023-02-24T10:22:00.646Z,10.80
2023-02-24T10:25:14.270Z,11.18
2023-02-24T10:28:25.377Z,10.98
2023-02-24T10:31:35.934Z,11.00
2023-02-24T10:34:44.971Z,11.10
2023-02-24T10:37:50.505Z,13.15
2023-02-24T10:41:00.027Z,12.23
2023-02-24T10:44:05.336Z,11.90
2023-02-24T10:47:14.719Z,12.45
2023-02-24T10:50:24.511Z,11.73
2023-02-24T10:53:35.135Z,11.63
2023-02-24T10:56:55.589Z,11.05
2023-02-24T11:00:13.626Z,11.00
2023-02-24T11:06:58.136Z,10.90
2023-02-24T11:10:11.819Z,12.35
2023-02-24T11:13:31.243Z,10.85
2023-02-24T11:16:56.144Z,11.57
2023-02-24T11:20:02.089Z,12.02
2023-02-24T11:23:16.698Z,12.63
2023-02-24T11:26:23.964Z,12.20
2023-02-24T11:29:34.277Z,12.43
2023-02-24T11:32:46.612Z,12.75
2023-02-24T11:35:55.551Z,13.13
2023-02-24T11:39:17.648Z,11.85
2023-02-24T11:42:29.167Z,12.52
2023-02-24T11:45:36.244Z,12.13
2023-02-24T11:48:42.667Z,12.93
2023-02-24T11:51:48.133Z,12.73
2023-02-24T11:54:57.205Z,12.57
2023-02-24T11:58:03.166Z,12.30
2023-02-24T12:01:11.504Z,11.55
2023-02-24T12:04:22.365Z,13.13
2023-02-24T12:07:29.266Z,11.57
2023-02-24T12:10:38.705Z,12.43
2023-02-24T12:13:47.733Z,12.25
2023-02-24T12:16:57.762Z,12.80
2023-02-24T12:20:06.132Z,13.15
2023-02-24T12:23:18.400Z,12.80
2023-02-24T12:26:27.405Z,12.55
2023-02-24T12:29:48.858Z,12.80
2023-02-24T12:33:00.808Z,13.50
2023-02-24T12:36:08.739Z,13.07
2023-02-24T12:39:18.326Z,13.48
2023-02-24T12:42:29.795Z,12.60
2023-02-24T12:45:39.512Z,13.77
2023-02-24T12:48:59.804Z,13.52
2023-02-24T12:52:10.658Z,12.98
2023-02-24T12:55:22.530Z,14.63
2023-02-24T12:58:31.936Z,13.75
2023-02-24T13:01:39.898Z,14.38
2023-02-24T13:04:51.696Z,13.90
2023-02-24T13:08:08.487Z,14.23
2023-02-24T13:11:17.100Z,14.20
2023-02-24T13:14:29.046Z,13.32
2023-02-24T13:17:34.433Z,14.30
2023-02-24T13:20:43.119Z,12.80
2023-02-24T13:23:58.005Z,13.80
2023-02-24T13:27:11.051Z,13.85
2023-02-24T13:30:31.342Z,13.65
2023-02-24T13:33:39.809Z,15.00
2023-02-24T13:36:49.936Z,14.02
2023-02-24T13:39:55.232Z,14.35
2023-02-24T13:43:02.336Z,14.55
2023-02-24T13:46:19.310Z,15.23
2023-02-24T13:49:36.636Z,14.80
2023-02-24T13:52:46.972Z,13.88
2023-02-24T13:55:58.429Z,13.50
2023-02-24T13:59:19.113Z,13.38
2023-02-24T14:02:26.183Z,14.18
2023-02-24T14:05:37.401Z,14.48
2023-02-24T14:08:45.576Z,14.27
2023-02-24T14:11:53.640Z,14.90
2023-02-24T14:14:59.682Z,14.90
2023-02-24T14:18:05.917Z,14.20
2023-02-24T14:21:23.773Z,14.18
2023-02-24T14:24:30.439Z,15.57
2023-02-24T14:27:35.556Z,14.25
2023-02-24T14:30:42.180Z,13.93
2023-02-24T14:33:48.354Z,14.23
2023-02-24T14:36:58.422Z,12.80
2023-02-24T14:40:06.083Z,14.20
2023-02-24T14:43:17.766Z,13.00
2023-02-24T14:46:23.734Z,13.40
2023-02-24T14:49:30.277Z,13.48
2023-02-24T14:52:42.685Z,13.85
2023-02-24T14:55:50.264Z,13.82
2023-02-24T14:58:57.450Z,13.60
2023-02-24T15:02:03.229Z,14.30
2023-02-24T15:05:11.659Z,13.32
2023-02-24T15:08:26.425Z,13.13
2023-02-24T15:11:32.803Z,13.20
2023-02-24T15:14:38.014Z,13.25
2023-02-24T15:17:44.073Z,14.50
2023-02-24T15:20:49.751Z,15.00
2023-02-24T15:24:04.677Z,14.52
2023-02-24T15:27:23.393Z,15.35
2023-02-24T15:30:30.701Z,13.75
2023-02-24T15:33:38.391Z,15.82
2023-02-24T15:36:43.463Z,14.75
2023-02-24T15:39:53.986Z,13.68
2023-02-24T15:42:59.894Z,14.68
2023-02-24T15:46:16.285Z,14.32
2023-02-24T15:49:21.494Z,14.45
2023-02-24T15:52:28.899Z,14.02
2023-02-24T15:55:36.787Z,15.82
2023-02-24T15:58:44.552Z,15.13
2023-02-24T16:01:52.053Z,14.75
2023-02-24T16:04:57.404Z,14.98
2023-02-24T16:08:02.729Z,15.07
2023-02-24T16:11:10.931Z,15.52
2023-02-24T16:14:18.029Z,15.90
2023-02-24T16:17:28.247Z,16.25
2023-02-24T16:20:37.636Z,16.20
2023-02-24T16:23:43.402Z,16.23
2023-02-24T16:26:51.166Z,16.65
2023-02-24T16:29:56.824Z,14.82
2023-02-24T16:33:02.984Z,16.20
2023-02-24T16:36:13.183Z,15.95
2023-02-24T16:39:18.357Z,16.35
2023-02-24T16:42:26.215Z,16.08
2023-02-24T16:45:32.435Z,16.25
2023-02-24T16:48:38.961Z,15.63
2023-02-24T16:51:44.307Z,14.98
2023-02-24T16:54:49.845Z,15.82
2023-02-24T16:57:57.677Z,16.58
2023-02-24T17:01:03.501Z,16.17
2023-02-24T17:04:10.131Z,15.25
2023-02-24T17:07:16.622Z,14.50
2023-02-24T17:10:22.447Z,15.55
2023-02-24T17:13:30.818Z,15.35
2023-02-24T17:16:39.701Z,16.00
2023-02-24T17:19:45.224Z,14.98
2023-02-24T17:22:51.012Z,15.88
2023-02-24T17:25:57.651Z,15.60
2023-02-24T17:29:06.479Z,15.32
2023-02-24T17:32:11.752Z,15.95
2023-02-24T17:35:17.309Z,14.98
2023-02-24T17:38:24.373Z,15.65
2023-02-24T17:41:30.001Z,14.70
2023-02-24T17:44:37.832Z,16.05
2023-02-24T17:47:43.583Z,16.98
2023-02-24T17:50:48.920Z,15.10
2023-02-24T17:53:53.918Z,16.48
2023-02-24T17:56:59.250Z,16.92
2023-02-24T18:00:07.897Z,17.83
2023-02-24T18:03:19.656Z,16.17
2023-02-24T18:06:25.224Z,16.60
2023-02-24T18:09:30.555Z,16.27
2023-02-24T18:12:35.808Z,16.25
2023-02-24T18:15:44.260Z,16.98
2023-02-24T18:18:50.249Z,16.58
2023-02-24T18:21:55.429Z,15.15
2023-02-24T18:25:01.230Z,15.30
2023-02-24T18:31:19.670Z,15.32
2023-02-24T18:34:25.654Z,15.55
2023-02-24T18:37:30.872Z,15.52
2023-02-24T18:40:38.495Z,16.05
2023-02-24T18:43:44.772Z,15.93
2023-02-24T18:46:52.804Z,15.82
2023-02-24T18:49:58.166Z,15.10
2023-02-24T18:53:03.883Z,16.80
2023-02-24T18:56:10.701Z,14.90
2023-02-24T18:59:15.912Z,15.32
2023-02-24T19:02:23.778Z,16.20
2023-02-24T19:05:37.905Z,16.35
2023-02-24T19:08:44.381Z,16.23
2023-02-24T19:11:49.514Z,16.00
2023-02-24T19:14:55.533Z,14.75
2023-02-24T19:18:03.563Z,14.68
2023-02-24T19:21:09.524Z,14.68
2023-02-24T19:24:15.032Z,13.90
2023-02-24T19:27:20.559Z,14.38
2023-02-24T19:30:25.979Z,14.57
2023-02-24T19:33:33.975Z,14.93
2023-02-24T19:36:41.270Z,15.77
2023-02-24T19:39:46.632Z,15.27
2023-02-24T19:42:53.602Z,14.45
2023-02-24T19:45:58.926Z,14.80
2023-02-24T19:49:07.135Z,15.30
2023-02-24T19:52:12.777Z,14.98
2023-02-24T19:55:18.229Z,14.18
2023-02-24T19:58:23.310Z,14.93
2023-02-24T20:01:29.820Z,14.98
2023-02-24T20:04:38.064Z,14.77
2023-02-24T20:10:49.134Z,16.02
2023-02-24T20:13:55.022Z,14.75
2023-02-24T20:17:00.879Z,14.55
2023-02-24T20:20:09.914Z,14.48
2023-02-24T20:23:15.227Z,14.55
2023-02-24T20:26:20.841Z,14.15
2023-02-24T20:29:26.541Z,15.20
2023-02-24T20:32:32.225Z,14.93
2023-02-24T20:35:41.440Z,13.45
2023-02-24T20:38:46.833Z,14.57
2023-02-24T20:41:52.285Z,12.68
2023-02-24T20:44:57.945Z,14.60
2023-02-24T20:48:03.247Z,14.20
2023-02-24T20:51:12.642Z,13.82
2023-02-24T20:54:18.046Z,13.85
2023-02-24T20:57:23.637Z,14.13
2023-02-24T21:00:29.388Z,14.02
2023-02-24T21:03:34.431Z,14.25
2023-02-24T21:06:42.653Z,14.23
2023-02-24T21:09:47.851Z,14.68
2023-02-24T21:12:53.529Z,13.57
2023-02-24T21:15:58.968Z,13.88
2023-02-24T21:19:04.399Z,14.70
2023-02-24T21:22:12.551Z,14.70
2023-02-24T21:25:17.672Z,15.43
2023-02-24T21:28:23.110Z,15.60
2023-02-24T21:31:29.284Z,14.77
2023-02-24T21:34:34.851Z,14.48
2023-02-24T21:37:42.959Z,13.85
2023-02-24T21:40:49.511Z,15.23
2023-02-24T21:43:55.421Z,14.73
2023-02-24T21:47:00.812Z,15.25
2023-02-24T21:50:07.620Z,15.20
2023-02-24T21:53:16.173Z,16.38
2023-02-24T21:56:22.140Z,15.85
2023-02-24T21:59:28.190Z,16.10
2023-02-24T22:02:33.425Z,18.15
2023-02-24T22:05:38.784Z,17.05
2023-02-24T22:08:47.132Z,16.05
2023-02-24T22:11:52.853Z,16.10
2023-02-24T22:14:58.045Z,16.52
2023-02-24T22:18:03.583Z,16.73
2023-02-24T22:21:10.317Z,15.90
2023-02-24T22:24:19.375Z,16.92
2023-02-24T22:27:24.514Z,16.42
2023-02-24T22:30:30.046Z,15.70
2023-02-24T22:33:38.089Z,16.67
2023-02-24T22:36:43.548Z,14.82
2023-02-24T22:39:51.358Z,15.32
2023-02-24T22:42:56.541Z,15.23
2023-02-24T22:46:02.373Z,14.90
2023-02-24T22:49:08.259Z,15.35
2023-02-24T22:52:16.958Z,14.77
2023-02-24T22:55:25.429Z,14.02
2023-02-24T22:58:30.797Z,13.75
2023-02-24T23:01:37.681Z,15.10
2023-02-24T23:04:44.191Z,14.93
2023-02-24T23:07:49.440Z,15.88
2023-02-24T23:10:57.645Z,15.45
2023-02-24T23:14:03.991Z,15.63
2023-02-24T23:17:09.093Z,15.05
2023-02-24T23:20:15.636Z,14.48
2023-02-24T23:23:21.049Z,15.15
2023-02-24T23:26:30.778Z,15.35
2023-02-24T23:29:36.835Z,15.95
2023-02-24T23:32:44.102Z,15.25
2023-02-24T23:35:50.154Z,15.48
2023-02-24T23:38:55.445Z,15.95
2023-02-24T23:42:03.341Z,15.10
2023-02-24T23:45:09.622Z,15.27
2023-02-24T23:48:15.979Z,17.17
2023-02-24T23:51:21.350Z,14.50
2023-02-24T23:54:26.589Z,15.20
2023-02-24T23:57:34.595Z,14.18
